« Back
NWS Peachtree City, Ga » Text Product » MCN Terminal Aerodrome Forecast


Printer-friendly Version
Current Version              Previous Versions:   1  2  3  4  5  6  7  8  9  

Terminal Aerodrome Forecast

508
FTUS42 KFFC 012100 AAA
TAFMCN
TAF AMD
KMCN 012119Z 0121/0218 06004KT P6SM VCSH BKN016
     FM012300 06004KT P6SM VCSH SCT025 BKN080
     FM020700 07003KT 5SM BR BKN012
     FM020900 07005KT 3SM BR OVC008
     FM021500 07004KT P6SM VCSH BKN015=

USA.gov is the U.S. government's official web portal to all federal, state and local government web resources and services.